sensor_id;sensor_type;location;lat;lon;timestamp;temperature;humidity
42819;DHT22;30249;51.426;0.102;2022-08-19T00:00:11;20.00;99.90
42819;DHT22;30249;51.426;0.102;2022-08-19T00:02:41;20.10;99.90
42819;DHT22;30249;51.426;0.102;2022-08-19T00:05:17;20.10;99.90
42819;DHT22;30249;51.426;0.102;2022-08-19T00:07:45;20.10;99.90
42819;DHT22;30249;51.426;0.102;2022-08-19T00:10:14;20.20;99.90
42819;DHT22;30249;51.426;0.102;2022-08-19T00:12:42;20.20;99.90
42819;DHT22;30249;51.426;0.102;2022-08-19T00:15:14;20.20;99.90
42819;DHT22;30249;51.426;0.102;2022-08-19T00:17:43;21.60;99.90
42819;DHT22;30249;51.426;0.102;2022-08-19T00:20:12;20.20;99.90
42819;DHT22;30249;51.426;0.102;2022-08-19T00:22:41;20.20;99.90
42819;DHT22;30249;51.426;0.102;2022-08-19T00:25:10;20.20;99.90
42819;DHT22;30249;51.426;0.102;2022-08-19T00:27:38;20.20;99.90
42819;DHT22;30249;51.426;0.102;2022-08-19T00:30:06;20.20;99.90
42819;DHT22;30249;51.426;0.102;2022-08-19T00:32:34;19.90;99.90
42819;DHT22;30249;51.426;0.102;2022-08-19T00:35:02;20.20;99.90
42819;DHT22;30249;51.426;0.102;2022-08-19T00:37:31;20.20;99.90
42819;DHT22;30249;51.426;0.102;2022-08-19T00:40:00;20.30;99.90
42819;DHT22;30249;51.426;0.102;2022-08-19T00:42:30;20.30;99.90
42819;DHT22;30249;51.426;0.102;2022-08-19T00:44:58;20.30;99.90
42819;DHT22;30249;51.426;0.102;2022-08-19T00:47:25;20.30;99.90
42819;DHT22;30249;51.426;0.102;2022-08-19T00:49:55;18.20;99.90
42819;DHT22;30249;51.426;0.102;2022-08-19T00:52:28;20.20;99.90
42819;DHT22;30249;51.426;0.102;2022-08-19T00:54:57;20.30;99.90
42819;DHT22;30249;51.426;0.102;2022-08-19T00:57:30;20.30;99.90
42819;DHT22;30249;51.426;0.102;2022-08-19T01:00:01;20.30;99.90
42819;DHT22;30249;51.426;0.102;2022-08-19T01:02:31;20.30;99.90
42819;DHT22;30249;51.426;0.102;2022-08-19T01:05:01;20.50;99.90
42819;DHT22;30249;51.426;0.102;2022-08-19T01:07:30;20.30;99.90
42819;DHT22;30249;51.426;0.102;2022-08-19T01:10:05;20.30;99.90
42819;DHT22;30249;51.426;0.102;2022-08-19T01:12:34;20.20;99.90
42819;DHT22;30249;51.426;0.102;2022-08-19T01:15:02;20.20;99.90
42819;DHT22;30249;51.426;0.102;2022-08-19T01:17:31;20.20;99.90
42819;DHT22;30249;51.426;0.102;2022-08-19T01:19:59;20.10;99.90
42819;DHT22;30249;51.426;0.102;2022-08-19T01:22:28;20.10;99.90
42819;DHT22;30249;51.426;0.102;2022-08-19T01:25:00;20.10;99.90
42819;DHT22;30249;51.426;0.102;2022-08-19T01:27:40;20.10;99.90
42819;DHT22;30249;51.426;0.102;2022-08-19T01:30:15;20.10;99.90
42819;DHT22;30249;51.426;0.102;2022-08-19T01:32:45;20.10;99.90
42819;DHT22;30249;51.426;0.102;2022-08-19T01:35:14;20.00;99.90
42819;DHT22;30249;51.426;0.102;2022-08-19T01:37:45;20.30;99.90
42819;DHT22;30249;51.426;0.102;2022-08-19T01:40:14;20.20;99.90
42819;DHT22;30249;51.426;0.102;2022-08-19T01:42:42;20.10;99.90
42819;DHT22;30249;51.426;0.102;2022-08-19T01:45:10;20.40;99.90
42819;DHT22;30249;51.426;0.102;2022-08-19T01:47:39;22.00;99.90
42819;DHT22;30249;51.426;0.102;2022-08-19T01:50:07;20.10;99.90
42819;DHT22;30249;51.426;0.102;2022-08-19T01:52:36;20.20;99.90
42819;DHT22;30249;51.426;0.102;2022-08-19T01:55:06;20.20;99.90
42819;DHT22;30249;51.426;0.102;2022-08-19T01:57:34;20.10;99.90
42819;DHT22;30249;51.426;0.102;2022-08-19T02:00:04;20.20;99.90
42819;DHT22;30249;51.426;0.102;2022-08-19T02:02:38;20.20;99.90
42819;DHT22;30249;51.426;0.102;2022-08-19T02:05:11;20.20;99.90
42819;DHT22;30249;51.426;0.102;2022-08-19T02:07:40;22.00;99.90
42819;DHT22;30249;51.426;0.102;2022-08-19T02:10:10;20.20;99.90
42819;DHT22;30249;51.426;0.102;2022-08-19T02:12:43;20.20;99.90
42819;DHT22;30249;51.426;0.102;2022-08-19T02:15:12;20.20;99.90
42819;DHT22;30249;51.426;0.102;2022-08-19T02:17:40;20.20;99.90
42819;DHT22;30249;51.426;0.102;2022-08-19T02:20:08;20.20;99.90
42819;DHT22;30249;51.426;0.102;2022-08-19T02:22:37;20.20;99.90
42819;DHT22;30249;51.426;0.102;2022-08-19T02:25:05;20.30;99.90
42819;DHT22;30249;51.426;0.102;2022-08-19T02:27:32;20.20;99.90
42819;DHT22;30249;51.426;0.102;2022-08-19T02:30:03;18.40;99.90
42819;DHT22;30249;51.426;0.102;2022-08-19T02:32:32;20.20;99.90
42819;DHT22;30249;51.426;0.102;2022-08-19T02:35:11;20.20;99.90
42819;DHT22;30249;51.426;0.102;2022-08-19T02:37:40;20.20;99.90
42819;DHT22;30249;51.426;0.102;2022-08-19T02:40:27;20.40;99.90
42819;DHT22;30249;51.426;0.102;2022-08-19T02:42:54;20.20;99.90
42819;DHT22;30249;51.426;0.102;2022-08-19T02:45:22;20.20;99.90
42819;DHT22;30249;51.426;0.102;2022-08-19T02:47:50;20.20;99.90
42819;DHT22;30249;51.426;0.102;2022-08-19T02:50:18;20.20;99.90
42819;DHT22;30249;51.426;0.102;2022-08-19T02:52:45;20.30;99.90
42819;DHT22;30249;51.426;0.102;2022-08-19T02:55:14;20.30;99.90
42819;DHT22;30249;51.426;0.102;2022-08-19T02:57:42;20.30;99.90
42819;DHT22;30249;51.426;0.102;2022-08-19T03:00:10;20.30;99.90
42819;DHT22;30249;51.426;0.102;2022-08-19T03:02:41;20.30;99.90
42819;DHT22;30249;51.426;0.102;2022-08-19T03:05:10;20.40;99.90
42819;DHT22;30249;51.426;0.102;2022-08-19T03:07:37;20.60;99.90
42819;DHT22;30249;51.426;0.102;2022-08-19T03:10:05;20.40;99.90
42819;DHT22;30249;51.426;0.102;2022-08-19T03:12:37;20.70;99.90
42819;DHT22;30249;51.426;0.102;2022-08-19T03:15:07;20.00;99.90
42819;DHT22;30249;51.426;0.102;2022-08-19T03:17:35;20.40;99.90
42819;DHT22;30249;51.426;0.102;2022-08-19T03:20:03;20.50;99.90
42819;DHT22;30249;51.426;0.102;2022-08-19T03:22:32;20.50;99.90
42819;DHT22;30249;51.426;0.102;2022-08-19T03:25:01;20.50;99.90
42819;DHT22;30249;51.426;0.102;2022-08-19T03:27:29;20.50;99.90
42819;DHT22;30249;51.426;0.102;2022-08-19T03:30:01;20.40;99.90
42819;DHT22;30249;51.426;0.102;2022-08-19T03:32:33;20.50;99.90
42819;DHT22;30249;51.426;0.102;2022-08-19T03:35:01;20.50;99.90
42819;DHT22;30249;51.426;0.102;2022-08-19T03:37:29;20.40;99.90
42819;DHT22;30249;51.426;0.102;2022-08-19T03:39:57;20.40;99.90
42819;DHT22;30249;51.426;0.102;2022-08-19T03:42:26;20.40;99.90
42819;DHT22;30249;51.426;0.102;2022-08-19T03:45:14;20.40;99.90
42819;DHT22;30249;51.426;0.102;2022-08-19T03:47:42;20.40;99.90
42819;DHT22;30249;51.426;0.102;2022-08-19T03:50:10;20.10;99.90
42819;DHT22;30249;51.426;0.102;2022-08-19T03:52:40;20.40;99.90
42819;DHT22;30249;51.426;0.102;2022-08-19T03:55:13;20.40;99.90
42819;DHT22;30249;51.426;0.102;2022-08-19T03:57:41;20.40;99.90
42819;DHT22;30249;51.426;0.102;2022-08-19T04:00:10;20.40;99.90
42819;DHT22;30249;51.426;0.102;2022-08-19T04:02:42;20.30;99.90
42819;DHT22;30249;51.426;0.102;2022-08-19T04:05:28;20.50;99.90
42819;DHT22;30249;51.426;0.102;2022-08-19T04:07:56;20.10;99.90
42819;DHT22;30249;51.426;0.102;2022-08-19T04:10:27;20.10;99.90
42819;DHT22;30249;51.426;0.102;2022-08-19T04:12:55;20.10;99.90
42819;DHT22;30249;51.426;0.102;2022-08-19T04:15:23;20.10;99.90
42819;DHT22;30249;51.426;0.102;2022-08-19T04:17:54;18.70;99.90
42819;DHT22;30249;51.426;0.102;2022-08-19T04:20:23;20.00;99.90
42819;DHT22;30249;51.426;0.102;2022-08-19T04:22:55;20.10;99.90
42819;DHT22;30249;51.426;0.102;2022-08-19T04:25:24;20.10;99.90
42819;DHT22;30249;51.426;0.102;2022-08-19T04:27:56;20.10;99.90
42819;DHT22;30249;51.426;0.102;2022-08-19T04:30:36;20.00;99.90
42819;DHT22;30249;51.426;0.102;2022-08-19T04:33:09;20.00;99.90
42819;DHT22;30249;51.426;0.102;2022-08-19T04:35:39;20.10;99.90
42819;DHT22;30249;51.426;0.102;2022-08-19T04:38:07;20.10;99.90
42819;DHT22;30249;51.426;0.102;2022-08-19T04:40:42;20.10;99.90
42819;DHT22;30249;51.426;0.102;2022-08-19T04:43:28;20.10;99.90
42819;DHT22;30249;51.426;0.102;2022-08-19T04:45:57;20.10;99.90
42819;DHT22;30249;51.426;0.102;2022-08-19T04:48:27;20.20;99.90
42819;DHT22;30249;51.426;0.102;2022-08-19T04:50:56;19.70;99.90
42819;DHT22;30249;51.426;0.102;2022-08-19T04:53:25;20.10;99.90
42819;DHT22;30249;51.426;0.102;2022-08-19T04:55:55;20.10;99.90
42819;DHT22;30249;51.426;0.102;2022-08-19T04:58:25;20.10;99.90
42819;DHT22;30249;51.426;0.102;2022-08-19T05:00:53;20.10;99.90
42819;DHT22;30249;51.426;0.102;2022-08-19T05:03:21;20.00;99.90
42819;DHT22;30249;51.426;0.102;2022-08-19T05:05:54;20.10;99.90
42819;DHT22;30249;51.426;0.102;2022-08-19T05:08:22;20.10;99.90
42819;DHT22;30249;51.426;0.102;2022-08-19T05:10:58;20.00;99.90
42819;DHT22;30249;51.426;0.102;2022-08-19T05:13:26;19.60;99.90
42819;DHT22;30249;51.426;0.102;2022-08-19T05:15:56;20.00;99.90
42819;DHT22;30249;51.426;0.102;2022-08-19T05:18:23;20.00;99.90
42819;DHT22;30249;51.426;0.102;2022-08-19T05:21:11;20.00;99.90
42819;DHT22;30249;51.426;0.102;2022-08-19T05:24:00;19.90;99.90
42819;DHT22;30249;51.426;0.102;2022-08-19T05:26:29;19.90;99.90
42819;DHT22;30249;51.426;0.102;2022-08-19T05:28:57;19.90;99.90
42819;DHT22;30249;51.426;0.102;2022-08-19T05:31:29;19.90;99.90
42819;DHT22;30249;51.426;0.102;2022-08-19T05:33:58;19.90;99.90
42819;DHT22;30249;51.426;0.102;2022-08-19T05:36:26;20.00;99.90
42819;DHT22;30249;51.426;0.102;2022-08-19T05:38:54;19.90;99.90
42819;DHT22;30249;51.426;0.102;2022-08-19T05:41:24;19.90;99.90
42819;DHT22;30249;51.426;0.102;2022-08-19T05:43:57;19.90;99.90
42819;DHT22;30249;51.426;0.102;2022-08-19T05:46:26;19.80;99.90
42819;DHT22;30249;51.426;0.102;2022-08-19T05:48:57;19.90;99.90
42819;DHT22;30249;51.426;0.102;2022-08-19T05:51:25;19.90;99.90
42819;DHT22;30249;51.426;0.102;2022-08-19T05:53:56;19.80;99.90
42819;DHT22;30249;51.426;0.102;2022-08-19T05:56:24;20.70;99.90
42819;DHT22;30249;51.426;0.102;2022-08-19T05:58:52;19.90;99.90
42819;DHT22;30249;51.426;0.102;2022-08-19T06:01:21;19.90;99.90
42819;DHT22;30249;51.426;0.102;2022-08-19T06:03:49;19.90;99.90
42819;DHT22;30249;51.426;0.102;2022-08-19T06:06:17;20.00;99.90
42819;DHT22;30249;51.426;0.102;2022-08-19T06:08:46;20.00;99.90
42819;DHT22;30249;51.426;0.102;2022-08-19T06:11:20;20.00;99.90
42819;DHT22;30249;51.426;0.102;2022-08-19T06:13:53;20.30;99.90
42819;DHT22;30249;51.426;0.102;2022-08-19T06:16:27;20.00;99.90
42819;DHT22;30249;51.426;0.102;2022-08-19T06:18:55;19.80;99.90
42819;DHT22;30249;51.426;0.102;2022-08-19T06:21:25;20.20;99.90
42819;DHT22;30249;51.426;0.102;2022-08-19T06:23:56;20.10;99.90
42819;DHT22;30249;51.426;0.102;2022-08-19T06:26:24;20.10;99.90
42819;DHT22;30249;51.426;0.102;2022-08-19T06:28:52;20.20;99.90
42819;DHT22;30249;51.426;0.102;2022-08-19T06:31:23;20.20;99.90
42819;DHT22;30249;51.426;0.102;2022-08-19T06:33:52;21.80;99.90
42819;DHT22;30249;51.426;0.102;2022-08-19T06:36:28;20.20;99.90
42819;DHT22;30249;51.426;0.102;2022-08-19T06:39:10;20.50;99.90
42819;DHT22;30249;51.426;0.102;2022-08-19T06:41:39;20.20;99.90
42819;DHT22;30249;51.426;0.102;2022-08-19T06:44:18;20.20;99.90
42819;DHT22;30249;51.426;0.102;2022-08-19T06:46:46;20.20;99.90
42819;DHT22;30249;51.426;0.102;2022-08-19T06:49:22;20.20;99.90
42819;DHT22;30249;51.426;0.102;2022-08-19T06:51:50;20.20;99.90
42819;DHT22;30249;51.426;0.102;2022-08-19T06:54:18;20.30;99.90
42819;DHT22;30249;51.426;0.102;2022-08-19T06:56:46;20.30;99.90
42819;DHT22;30249;51.426;0.102;2022-08-19T06:59:19;20.30;99.90
42819;DHT22;30249;51.426;0.102;2022-08-19T07:01:50;20.30;99.90
42819;DHT22;30249;51.426;0.102;2022-08-19T07:04:20;20.20;99.90
42819;DHT22;30249;51.426;0.102;2022-08-19T07:06:48;20.20;99.90
42819;DHT22;30249;51.426;0.102;2022-08-19T07:09:21;20.20;99.90
42819;DHT22;30249;51.426;0.102;2022-08-19T07:11:51;20.20;99.90
42819;DHT22;30249;51.426;0.102;2022-08-19T07:14:24;20.30;99.90
42819;DHT22;30249;51.426;0.102;2022-08-19T07:16:53;20.30;99.90
42819;DHT22;30249;51.426;0.102;2022-08-19T07:19:23;20.30;99.90
42819;DHT22;30249;51.426;0.102;2022-08-19T07:21:52;20.30;99.90
42819;DHT22;30249;51.426;0.102;2022-08-19T07:24:21;20.30;99.90
42819;DHT22;30249;51.426;0.102;2022-08-19T07:26:52;19.30;99.90
42819;DHT22;30249;51.426;0.102;2022-08-19T07:29:21;20.30;99.90
42819;DHT22;30249;51.426;0.102;2022-08-19T07:31:53;20.40;99.90
42819;DHT22;30249;51.426;0.102;2022-08-19T07:34:24;20.40;99.90
42819;DHT22;30249;51.426;0.102;2022-08-19T07:36:53;20.10;99.90
42819;DHT22;30249;51.426;0.102;2022-08-19T07:39:22;20.40;99.90
42819;DHT22;30249;51.426;0.102;2022-08-19T07:41:59;20.60;99.90
42819;DHT22;30249;51.426;0.102;2022-08-19T07:44:27;20.40;99.90
42819;DHT22;30249;51.426;0.102;2022-08-19T07:46:56;20.40;99.90
42819;DHT22;30249;51.426;0.102;2022-08-19T07:49:26;20.40;99.90
42819;DHT22;30249;51.426;0.102;2022-08-19T07:52:01;20.50;99.90
42819;DHT22;30249;51.426;0.102;2022-08-19T07:54:34;20.50;99.90
42819;DHT22;30249;51.426;0.102;2022-08-19T07:57:09;20.60;99.90
42819;DHT22;30249;51.426;0.102;2022-08-19T07:59:38;20.70;99.90
42819;DHT22;30249;51.426;0.102;2022-08-19T08:02:06;20.80;99.90
42819;DHT22;30249;51.426;0.102;2022-08-19T08:04:37;20.90;99.90
42819;DHT22;30249;51.426;0.102;2022-08-19T08:07:23;21.00;99.90
42819;DHT22;30249;51.426;0.102;2022-08-19T08:10:13;21.10;99.90
42819;DHT22;30249;51.426;0.102;2022-08-19T08:12:47;21.10;99.90
42819;DHT22;30249;51.426;0.102;2022-08-19T08:15:39;21.10;99.90
42819;DHT22;30249;51.426;0.102;2022-08-19T08:18:10;21.10;99.90
42819;DHT22;30249;51.426;0.102;2022-08-19T08:20:39;21.10;99.90
42819;DHT22;30249;51.426;0.102;2022-08-19T08:23:06;21.10;99.90
42819;DHT22;30249;51.426;0.102;2022-08-19T08:25:52;21.20;99.90
42819;DHT22;30249;51.426;0.102;2022-08-19T08:28:20;21.20;99.90
42819;DHT22;30249;51.426;0.102;2022-08-19T08:30:49;21.20;99.90
42819;DHT22;30249;51.426;0.102;2022-08-19T08:33:22;21.30;99.90
42819;DHT22;30249;51.426;0.102;2022-08-19T08:36:07;21.30;99.90
42819;DHT22;30249;51.426;0.102;2022-08-19T08:38:35;21.40;99.90
42819;DHT22;30249;51.426;0.102;2022-08-19T08:43:49;21.50;99.90
42819;DHT22;30249;51.426;0.102;2022-08-19T08:46:21;21.60;99.90
42819;DHT22;30249;51.426;0.102;2022-08-19T08:51:51;21.70;99.90
42819;DHT22;30249;51.426;0.102;2022-08-19T08:54:46;21.70;99.90
42819;DHT22;30249;51.426;0.102;2022-08-19T08:57:27;21.80;99.90
42819;DHT22;30249;51.426;0.102;2022-08-19T09:00:18;21.80;99.90
42819;DHT22;30249;51.426;0.102;2022-08-19T09:02:47;21.80;99.50
42819;DHT22;30249;51.426;0.102;2022-08-19T09:05:18;21.80;99.30
42819;DHT22;30249;51.426;0.102;2022-08-19T09:15:40;21.60;99.50
42819;DHT22;30249;51.426;0.102;2022-08-19T09:18:14;21.50;99.60
42819;DHT22;30249;51.426;0.102;2022-08-19T09:20:46;21.50;99.30
42819;DHT22;30249;51.426;0.102;2022-08-19T09:23:15;21.50;99.30
42819;DHT22;30249;51.426;0.102;2022-08-19T09:25:43;21.50;97.90
42819;DHT22;30249;51.426;0.102;2022-08-19T09:28:12;21.50;97.70
42819;DHT22;30249;51.426;0.102;2022-08-19T09:30:48;21.60;97.50
42819;DHT22;30249;51.426;0.102;2022-08-19T09:33:19;21.60;97.30
42819;DHT22;30249;51.426;0.102;2022-08-19T09:35:47;21.60;97.30
42819;DHT22;30249;51.426;0.102;2022-08-19T09:38:20;21.80;97.00
42819;DHT22;30249;51.426;0.102;2022-08-19T09:40:49;21.90;97.20
42819;DHT22;30249;51.426;0.102;2022-08-19T09:43:17;22.00;97.10
42819;DHT22;30249;51.426;0.102;2022-08-19T09:46:00;22.10;97.00
42819;DHT22;30249;51.426;0.102;2022-08-19T09:48:28;21.90;96.70
42819;DHT22;30249;51.426;0.102;2022-08-19T09:51:05;22.30;96.90
42819;DHT22;30249;51.426;0.102;2022-08-19T09:53:38;22.40;96.50
42819;DHT22;30249;51.426;0.102;2022-08-19T09:56:06;22.50;96.70
42819;DHT22;30249;51.426;0.102;2022-08-19T09:58:35;22.60;96.90
42819;DHT22;30249;51.426;0.102;2022-08-19T10:01:07;22.60;96.60
42819;DHT22;30249;51.426;0.102;2022-08-19T10:03:36;22.70;96.50
42819;DHT22;30249;51.426;0.102;2022-08-19T10:06:04;22.80;96.70
42819;DHT22;30249;51.426;0.102;2022-08-19T10:08:41;22.90;96.50
42819;DHT22;30249;51.426;0.102;2022-08-19T10:11:20;23.00;96.30
42819;DHT22;30249;51.426;0.102;2022-08-19T10:14:04;23.10;95.90
42819;DHT22;30249;51.426;0.102;2022-08-19T10:16:33;23.60;95.80
42819;DHT22;30249;51.426;0.102;2022-08-19T10:19:06;23.30;95.70
42819;DHT22;30249;51.426;0.102;2022-08-19T10:21:34;23.40;95.20
42819;DHT22;30249;51.426;0.102;2022-08-19T10:24:02;23.60;95.40
42819;DHT22;30249;51.426;0.102;2022-08-19T10:26:33;23.70;95.10
42819;DHT22;30249;51.426;0.102;2022-08-19T10:29:02;23.80;94.60
42819;DHT22;30249;51.426;0.102;2022-08-19T10:31:32;23.80;94.40
42819;DHT22;30249;51.426;0.102;2022-08-19T10:34:20;23.80;94.30
42819;DHT22;30249;51.426;0.102;2022-08-19T10:36:55;23.80;94.20
42819;DHT22;30249;51.426;0.102;2022-08-19T10:39:28;23.80;94.00
42819;DHT22;30249;51.426;0.102;2022-08-19T10:41:59;23.70;94.10
42819;DHT22;30249;51.426;0.102;2022-08-19T10:44:27;23.70;94.10
42819;DHT22;30249;51.426;0.102;2022-08-19T10:46:59;23.60;94.10
42819;DHT22;30249;51.426;0.102;2022-08-19T10:49:26;23.40;94.30
42819;DHT22;30249;51.426;0.102;2022-08-19T10:51:55;23.30;94.30
42819;DHT22;30249;51.426;0.102;2022-08-19T10:54:47;23.10;94.40
42819;DHT22;30249;51.426;0.102;2022-08-19T10:57:35;22.90;94.60
42819;DHT22;30249;51.426;0.102;2022-08-19T11:00:23;23.00;94.70
42819;DHT22;30249;51.426;0.102;2022-08-19T11:02:53;23.00;94.60
42819;DHT22;30249;51.426;0.102;2022-08-19T11:05:21;23.00;94.50
42819;DHT22;30249;51.426;0.102;2022-08-19T11:07:51;23.10;94.70
42819;DHT22;30249;51.426;0.102;2022-08-19T11:10:19;23.20;94.70
42819;DHT22;30249;51.426;0.102;2022-08-19T11:12:48;23.20;94.50
42819;DHT22;30249;51.426;0.102;2022-08-19T11:15:20;23.20;94.60
42819;DHT22;30249;51.426;0.102;2022-08-19T11:17:48;23.20;94.70
42819;DHT22;30249;51.426;0.102;2022-08-19T11:20:16;23.20;94.60
42819;DHT22;30249;51.426;0.102;2022-08-19T11:22:44;23.20;94.80
42819;DHT22;30249;51.426;0.102;2022-08-19T11:25:14;23.20;94.40
42819;DHT22;30249;51.426;0.102;2022-08-19T11:27:43;23.20;94.60
42819;DHT22;30249;51.426;0.102;2022-08-19T11:30:13;23.30;94.60
42819;DHT22;30249;51.426;0.102;2022-08-19T11:32:41;23.30;94.40
42819;DHT22;30249;51.426;0.102;2022-08-19T11:35:18;23.40;94.60
42819;DHT22;30249;51.426;0.102;2022-08-19T11:37:47;23.50;94.00
42819;DHT22;30249;51.426;0.102;2022-08-19T11:40:34;23.60;94.10
42819;DHT22;30249;51.426;0.102;2022-08-19T11:43:02;24.00;94.30
42819;DHT22;30249;51.426;0.102;2022-08-19T11:45:31;23.80;93.90
42819;DHT22;30249;51.426;0.102;2022-08-19T11:48:01;23.80;93.70
42819;DHT22;30249;51.426;0.102;2022-08-19T11:50:29;23.80;93.50
42819;DHT22;30249;51.426;0.102;2022-08-19T11:52:56;23.80;93.50
42819;DHT22;30249;51.426;0.102;2022-08-19T11:55:24;23.90;93.10
42819;DHT22;30249;51.426;0.102;2022-08-19T11:57:52;24.00;92.90
42819;DHT22;30249;51.426;0.102;2022-08-19T12:00:20;23.90;92.30
42819;DHT22;30249;51.426;0.102;2022-08-19T12:02:49;23.80;92.40
42819;DHT22;30249;51.426;0.102;2022-08-19T12:05:16;23.80;91.90
42819;DHT22;30249;51.426;0.102;2022-08-19T12:07:45;23.90;92.40
42819;DHT22;30249;51.426;0.102;2022-08-19T12:10:13;24.00;91.90
42819;DHT22;30249;51.426;0.102;2022-08-19T12:12:45;24.10;91.80
42819;DHT22;30249;51.426;0.102;2022-08-19T12:15:25;24.20;91.50
42819;DHT22;30249;51.426;0.102;2022-08-19T12:18:04;22.30;89.40
42819;DHT22;30249;51.426;0.102;2022-08-19T12:20:36;24.40;90.10
42819;DHT22;30249;51.426;0.102;2022-08-19T12:23:05;24.50;88.40
42819;DHT22;30249;51.426;0.102;2022-08-19T12:25:43;24.60;88.30
42819;DHT22;30249;51.426;0.102;2022-08-19T12:28:22;24.60;87.60
42819;DHT22;30249;51.426;0.102;2022-08-19T12:30:51;24.50;85.00
42819;DHT22;30249;51.426;0.102;2022-08-19T12:33:19;24.70;86.20
42819;DHT22;30249;51.426;0.102;2022-08-19T12:35:55;24.70;85.70
42819;DHT22;30249;51.426;0.102;2022-08-19T12:38:39;24.70;85.70
42819;DHT22;30249;51.426;0.102;2022-08-19T12:41:08;24.70;85.10
42819;DHT22;30249;51.426;0.102;2022-08-19T12:43:36;24.70;84.60
42819;DHT22;30249;51.426;0.102;2022-08-19T12:46:05;24.60;84.00
42819;DHT22;30249;51.426;0.102;2022-08-19T12:48:37;24.70;84.70
42819;DHT22;30249;51.426;0.102;2022-08-19T12:51:07;24.30;84.00
42819;DHT22;30249;51.426;0.102;2022-08-19T12:53:35;24.20;83.90
42819;DHT22;30249;51.426;0.102;2022-08-19T12:56:06;24.10;84.30
42819;DHT22;30249;51.426;0.102;2022-08-19T12:58:40;24.10;82.80
42819;DHT22;30249;51.426;0.102;2022-08-19T13:01:17;24.10;82.90
42819;DHT22;30249;51.426;0.102;2022-08-19T13:03:50;24.20;82.90
42819;DHT22;30249;51.426;0.102;2022-08-19T13:06:20;24.30;82.10
42819;DHT22;30249;51.426;0.102;2022-08-19T13:08:48;24.60;80.80
42819;DHT22;30249;51.426;0.102;2022-08-19T13:11:19;24.60;80.70
42819;DHT22;30249;51.426;0.102;2022-08-19T13:13:48;24.70;80.10
42819;DHT22;30249;51.426;0.102;2022-08-19T13:16:18;24.90;79.00
42819;DHT22;30249;51.426;0.102;2022-08-19T13:18:48;25.10;78.70
42819;DHT22;30249;51.426;0.102;2022-08-19T13:21:17;25.30;78.70
42819;DHT22;30249;51.426;0.102;2022-08-19T13:23:49;25.80;78.00
42819;DHT22;30249;51.426;0.102;2022-08-19T13:26:19;25.70;76.00
42819;DHT22;30249;51.426;0.102;2022-08-19T13:28:47;25.80;76.10
42819;DHT22;30249;51.426;0.102;2022-08-19T13:31:34;26.00;75.90
42819;DHT22;30249;51.426;0.102;2022-08-19T13:34:31;26.30;75.60
42819;DHT22;30249;51.426;0.102;2022-08-19T13:37:02;26.60;74.90
42819;DHT22;30249;51.426;0.102;2022-08-19T13:39:31;26.80;74.30
42819;DHT22;30249;51.426;0.102;2022-08-19T13:42:01;26.70;72.70
42819;DHT22;30249;51.426;0.102;2022-08-19T13:44:30;26.60;73.90
42819;DHT22;30249;51.426;0.102;2022-08-19T13:47:02;26.60;73.50
42819;DHT22;30249;51.426;0.102;2022-08-19T13:49:34;26.60;73.50
42819;DHT22;30249;51.426;0.102;2022-08-19T13:52:04;26.40;73.30
42819;DHT22;30249;51.426;0.102;2022-08-19T13:54:33;26.90;73.60
42819;DHT22;30249;51.426;0.102;2022-08-19T13:57:03;27.30;73.60
42819;DHT22;30249;51.426;0.102;2022-08-19T13:59:36;26.90;72.60
42819;DHT22;30249;51.426;0.102;2022-08-19T14:02:04;27.10;72.00
42819;DHT22;30249;51.426;0.102;2022-08-19T14:04:32;27.20;72.00
42819;DHT22;30249;51.426;0.102;2022-08-19T14:07:01;27.80;71.60
42819;DHT22;30249;51.426;0.102;2022-08-19T14:09:29;27.80;71.40
42819;DHT22;30249;51.426;0.102;2022-08-19T14:11:57;28.00;70.90
42819;DHT22;30249;51.426;0.102;2022-08-19T14:14:25;29.00;70.40
42819;DHT22;30249;51.426;0.102;2022-08-19T14:16:55;28.50;70.00
42819;DHT22;30249;51.426;0.102;2022-08-19T14:19:23;28.70;69.60
42819;DHT22;30249;51.426;0.102;2022-08-19T14:21:56;29.00;68.70
42819;DHT22;30249;51.426;0.102;2022-08-19T14:24:32;29.10;67.30
42819;DHT22;30249;51.426;0.102;2022-08-19T14:27:05;29.40;65.70
42819;DHT22;30249;51.426;0.102;2022-08-19T14:29:34;29.20;65.70
42819;DHT22;30249;51.426;0.102;2022-08-19T14:32:02;29.10;65.40
42819;DHT22;30249;51.426;0.102;2022-08-19T14:34:30;29.20;64.30
42819;DHT22;30249;51.426;0.102;2022-08-19T14:37:03;28.90;63.30
42819;DHT22;30249;51.426;0.102;2022-08-19T14:39:31;29.20;63.70
42819;DHT22;30249;51.426;0.102;2022-08-19T14:41:59;29.30;63.80
42819;DHT22;30249;51.426;0.102;2022-08-19T14:44:28;29.40;62.80
42819;DHT22;30249;51.426;0.102;2022-08-19T14:47:00;29.60;62.40
42819;DHT22;30249;51.426;0.102;2022-08-19T14:49:29;29.60;61.40
42819;DHT22;30249;51.426;0.102;2022-08-19T14:52:11;29.80;60.80
42819;DHT22;30249;51.426;0.102;2022-08-19T14:54:44;29.90;60.50
42819;DHT22;30249;51.426;0.102;2022-08-19T14:57:12;30.00;59.30
42819;DHT22;30249;51.426;0.102;2022-08-19T14:59:43;30.00;59.50
42819;DHT22;30249;51.426;0.102;2022-08-19T15:02:14;29.90;57.70
42819;DHT22;30249;51.426;0.102;2022-08-19T15:05:02;30.10;57.40
42819;DHT22;30249;51.426;0.102;2022-08-19T15:07:31;30.50;58.00
42819;DHT22;30249;51.426;0.102;2022-08-19T15:10:02;30.50;57.00
42819;DHT22;30249;51.426;0.102;2022-08-19T15:12:30;30.60;57.10
42819;DHT22;30249;51.426;0.102;2022-08-19T15:15:00;30.70;56.90
42819;DHT22;30249;51.426;0.102;2022-08-19T15:17:29;30.80;56.20
42819;DHT22;30249;51.426;0.102;2022-08-19T15:20:17;31.60;56.10
42819;DHT22;30249;51.426;0.102;2022-08-19T15:22:46;30.60;55.00
42819;DHT22;30249;51.426;0.102;2022-08-19T15:25:14;30.60;54.70
42819;DHT22;30249;51.426;0.102;2022-08-19T15:27:52;30.70;54.60
42819;DHT22;30249;51.426;0.102;2022-08-19T15:30:25;30.70;54.70
42819;DHT22;30249;51.426;0.102;2022-08-19T15:32:53;30.90;55.20
42819;DHT22;30249;51.426;0.102;2022-08-19T15:35:22;31.00;55.30
42819;DHT22;30249;51.426;0.102;2022-08-19T15:37:52;31.10;55.00
42819;DHT22;30249;51.426;0.102;2022-08-19T15:40:23;31.30;55.00
42819;DHT22;30249;51.426;0.102;2022-08-19T15:42:52;31.40;55.00
42819;DHT22;30249;51.426;0.102;2022-08-19T15:45:34;31.30;55.30
42819;DHT22;30249;51.426;0.102;2022-08-19T15:48:04;31.40;54.50
42819;DHT22;30249;51.426;0.102;2022-08-19T15:50:36;31.80;55.10
42819;DHT22;30249;51.426;0.102;2022-08-19T15:53:10;31.90;54.20
42819;DHT22;30249;51.426;0.102;2022-08-19T15:55:43;31.80;55.10
42819;DHT22;30249;51.426;0.102;2022-08-19T15:58:13;31.80;54.50
42819;DHT22;30249;51.426;0.102;2022-08-19T16:01:05;31.80;54.10
42819;DHT22;30249;51.426;0.102;2022-08-19T16:03:56;31.80;54.00
42819;DHT22;30249;51.426;0.102;2022-08-19T16:06:47;31.70;54.00
42819;DHT22;30249;51.426;0.102;2022-08-19T16:09:16;31.80;53.90